createdAt,value
2023-09-26T00:00:26.399Z,100481.19
2023-09-26T00:02:29.146Z,100472.41
2023-09-26T00:04:33.386Z,100482.00
2023-09-26T00:06:36.171Z,100473.25
2023-09-26T00:08:38.960Z,100479.94
2023-09-26T00:10:41.680Z,100485.97
2023-09-26T00:12:44.685Z,100479.16
2023-09-26T00:14:47.513Z,100489.16
2023-09-26T00:16:50.309Z,100496.00
2023-09-26T00:18:53.062Z,100499.06
2023-09-26T00:20:55.745Z,100512.34
2023-09-26T00:22:58.646Z,100503.69
2023-09-26T00:25:01.833Z,100510.22
2023-09-26T00:27:05.253Z,100519.31
2023-09-26T00:29:08.023Z,100515.75
2023-09-26T00:31:10.963Z,100509.09
2023-09-26T00:33:13.740Z,100497.88
2023-09-26T00:35:16.744Z,100508.97
2023-09-26T00:37:19.721Z,100507.53
2023-09-26T00:39:22.979Z,100514.66
2023-09-26T00:41:25.745Z,100516.81
2023-09-26T00:43:28.494Z,100512.25
2023-09-26T00:45:31.828Z,100508.16
2023-09-26T00:47:36.737Z,100513.47
2023-09-26T00:49:40.069Z,100519.31
2023-09-26T00:51:42.823Z,100518.31
2023-09-26T00:53:45.720Z,100527.53
2023-09-26T00:55:52.265Z,100527.03
2023-09-26T00:57:56.288Z,100528.75
2023-09-26T01:00:00.784Z,100533.47
2023-09-26T01:02:03.599Z,100541.34
2023-09-26T01:04:07.607Z,100539.19
2023-09-26T01:06:10.513Z,100539.81
2023-09-26T01:08:13.522Z,100535.56
2023-09-26T01:10:16.630Z,100542.19
2023-09-26T01:12:21.328Z,100544.44
2023-09-26T01:14:24.014Z,100538.34
2023-09-26T01:16:27.003Z,100540.66
2023-09-26T01:18:30.396Z,100539.03
2023-09-26T01:20:33.105Z,100538.41
2023-09-26T01:22:36.205Z,100541.81
2023-09-26T01:24:39.180Z,100538.41
2023-09-26T01:26:41.852Z,100541.69
2023-09-26T01:28:44.598Z,100538.94
2023-09-26T01:30:47.703Z,100541.50
2023-09-26T01:32:50.403Z,100541.00
2023-09-26T01:34:53.056Z,100543.88
2023-09-26T01:36:55.744Z,100540.38
2023-09-26T01:38:58.809Z,100548.88
2023-09-26T01:41:01.516Z,100549.47
2023-09-26T01:43:04.701Z,100545.50
2023-09-26T01:45:08.184Z,100545.00
2023-09-26T01:47:19.760Z,100550.50
2023-09-26T01:49:22.471Z,100551.00
2023-09-26T01:51:25.263Z,100554.28
2023-09-26T01:53:27.846Z,100553.75
2023-09-26T01:55:30.562Z,100557.44
2023-09-26T01:57:34.246Z,100555.19
2023-09-26T01:59:36.878Z,100561.22
2023-09-26T02:01:39.665Z,100561.00
2023-09-26T02:03:43.355Z,100564.69
2023-09-26T02:05:46.046Z,100563.06
2023-09-26T02:07:49.803Z,100568.88
2023-09-26T02:09:53.875Z,100568.88
2023-09-26T02:11:56.561Z,100575.69
2023-09-26T02:13:59.453Z,100568.97
2023-09-26T02:16:02.414Z,100570.81
2023-09-26T02:18:06.549Z,100577.84
2023-09-26T02:20:15.899Z,100580.09
2023-09-26T02:22:19.557Z,100583.16
2023-09-26T02:24:22.128Z,100583.47
2023-09-26T02:26:24.863Z,100581.66
2023-09-26T02:28:27.574Z,100578.69
2023-09-26T02:30:30.387Z,100586.94
2023-09-26T02:32:33.872Z,100589.41
2023-09-26T02:34:36.623Z,100582.84
2023-09-26T02:36:39.242Z,100592.97
2023-09-26T02:38:41.964Z,100592.16
2023-09-26T02:40:44.606Z,100592.66
2023-09-26T02:42:47.906Z,100599.56
2023-09-26T02:44:51.259Z,100599.09
2023-09-26T02:46:53.919Z,100593.59
2023-09-26T02:48:56.823Z,100606.75
2023-09-26T02:51:06.340Z,100602.34
2023-09-26T02:53:08.969Z,100603.97
2023-09-26T02:55:12.331Z,100609.91
2023-09-26T02:57:16.248Z,100615.53
2023-09-26T02:59:18.918Z,100611.63
2023-09-26T03:01:21.932Z,100621.44
2023-09-26T03:03:24.700Z,100619.78
2023-09-26T03:05:27.386Z,100617.88
2023-09-26T03:07:30.136Z,100619.31
2023-09-26T03:09:32.924Z,100623.97
2023-09-26T03:11:35.677Z,100621.94
2023-09-26T03:13:39.291Z,100630.81
2023-09-26T03:15:42.029Z,100625.00
2023-09-26T03:17:44.919Z,100629.88
2023-09-26T03:19:47.771Z,100624.91
2023-09-26T03:21:53.702Z,100627.66
2023-09-26T03:23:56.800Z,100626.53
2023-09-26T03:25:59.676Z,100630.28
2023-09-26T03:28:03.670Z,100632.25
2023-09-26T03:30:07.303Z,100636.53
2023-09-26T03:32:09.973Z,100641.13
2023-09-26T03:34:13.081Z,100636.13
2023-09-26T03:36:15.796Z,100644.59
2023-09-26T03:38:18.528Z,100635.50
2023-09-26T03:40:21.314Z,100636.31
2023-09-26T03:42:23.989Z,100644.56
2023-09-26T03:44:26.755Z,100642.63
2023-09-26T03:46:29.448Z,100647.56
2023-09-26T03:48:33.240Z,100637.84
2023-09-26T03:50:35.929Z,100648.13
2023-09-26T03:52:38.623Z,100655.59
2023-09-26T03:54:41.317Z,100653.66
2023-09-26T03:56:44.384Z,100662.22
2023-09-26T03:58:47.049Z,100656.09
2023-09-26T04:00:50.221Z,100659.56
2023-09-26T04:02:55.764Z,100655.06
2023-09-26T04:04:58.514Z,100664.78
2023-09-26T04:07:01.720Z,100671.91
2023-09-26T04:09:04.676Z,100668.72
2023-09-26T04:11:13.197Z,100675.56
2023-09-26T04:13:16.146Z,100677.22
2023-09-26T04:15:19.090Z,100672.50
2023-09-26T04:17:21.917Z,100677.69
2023-09-26T04:19:24.826Z,100676.38
2023-09-26T04:21:27.613Z,100674.66
2023-09-26T04:23:30.473Z,100680.19
2023-09-26T04:25:35.788Z,100684.88
2023-09-26T04:27:39.188Z,100690.28
2023-09-26T04:29:41.950Z,100689.63
2023-09-26T04:31:44.874Z,100699.22
2023-09-26T04:33:49.790Z,100696.19
2023-09-26T04:35:58.927Z,100693.28
2023-09-26T04:38:02.316Z,100700.47
2023-09-26T04:40:11.836Z,100697.44
2023-09-26T04:42:14.534Z,100694.44
2023-09-26T04:44:17.221Z,100697.25
2023-09-26T04:46:19.959Z,100702.53
2023-09-26T04:48:22.838Z,100704.16
2023-09-26T04:50:25.640Z,100706.78
2023-09-26T04:52:28.399Z,100697.88
2023-09-26T04:54:31.285Z,100709.31
2023-09-26T04:56:33.910Z,100714.34
2023-09-26T04:58:36.580Z,100706.94
2023-09-26T05:00:39.274Z,100710.38
2023-09-26T05:02:41.991Z,100720.63
2023-09-26T05:04:47.143Z,100723.16
2023-09-26T05:06:49.924Z,100724.38
2023-09-26T05:08:52.530Z,100731.78
2023-09-26T05:10:55.296Z,100726.50
2023-09-26T05:13:00.258Z,100729.28
2023-09-26T05:15:06.469Z,100726.72
2023-09-26T05:17:09.243Z,100730.88
2023-09-26T05:19:12.056Z,100733.59
2023-09-26T05:21:14.768Z,100738.25
2023-09-26T05:23:17.466Z,100737.88
2023-09-26T05:25:20.535Z,100742.44
2023-09-26T05:27:23.364Z,100740.69
2023-09-26T05:29:26.151Z,100729.94
2023-09-26T05:31:33.249Z,100736.63
2023-09-26T05:33:36.489Z,100744.97
2023-09-26T05:35:39.134Z,100740.19
2023-09-26T05:37:41.741Z,100738.66
2023-09-26T05:39:45.754Z,100735.03
2023-09-26T05:41:48.663Z,100747.94
2023-09-26T05:43:52.060Z,100747.91
2023-09-26T05:45:55.021Z,100752.53
2023-09-26T05:48:00.236Z,100759.41
2023-09-26T05:50:05.688Z,100755.47
2023-09-26T05:52:09.004Z,100749.09
2023-09-26T05:54:29.339Z,100756.25
2023-09-26T05:56:33.402Z,100757.25
2023-09-26T05:58:36.572Z,100764.75
2023-09-26T06:00:41.144Z,100757.59
2023-09-26T06:02:47.562Z,100757.59
2023-09-26T06:04:56.122Z,100760.50
2023-09-26T06:07:04.890Z,100763.47
2023-09-26T06:09:12.851Z,100758.81
2023-09-26T06:11:20.883Z,100762.22
2023-09-26T06:13:26.295Z,100769.25
2023-09-26T06:15:30.555Z,100763.91
2023-09-26T06:17:36.209Z,100764.06
2023-09-26T06:19:40.660Z,100761.47
2023-09-26T06:21:43.790Z,100755.94
2023-09-26T06:23:46.374Z,100767.53
2023-09-26T06:26:01.961Z,100764.28
2023-09-26T06:28:05.079Z,100767.84
2023-09-26T06:30:08.299Z,100771.25
2023-09-26T06:32:12.160Z,100763.13
2023-09-26T06:34:15.158Z,100764.75
2023-09-26T06:36:22.734Z,100758.25
2023-09-26T06:38:25.424Z,100760.66
2023-09-26T06:40:28.010Z,100761.63
2023-09-26T06:42:30.705Z,100763.56
2023-09-26T06:44:33.570Z,100764.72
2023-09-26T06:46:37.799Z,100759.34
2023-09-26T06:48:44.921Z,100763.56
2023-09-26T06:50:47.607Z,100760.13
2023-09-26T06:52:50.324Z,100749.69
2023-09-26T06:54:53.101Z,100758.69
2023-09-26T06:56:56.979Z,100759.81
2023-09-26T06:58:59.933Z,100755.72
2023-09-26T07:01:03.357Z,100762.56
2023-09-26T07:03:08.669Z,100755.91
2023-09-26T07:05:11.716Z,100760.97
2023-09-26T07:07:15.738Z,100754.13
2023-09-26T07:09:19.437Z,100747.59
2023-09-26T07:11:24.151Z,100751.81
2023-09-26T07:13:47.293Z,100742.50
2023-09-26T07:16:00.252Z,100740.38
2023-09-26T07:18:08.295Z,100749.19
2023-09-26T07:20:16.598Z,100742.28
2023-09-26T07:22:19.937Z,100738.22
2023-09-26T07:24:24.430Z,100734.13
2023-09-26T07:26:33.746Z,100734.41
2023-09-26T07:28:36.652Z,100726.69
2023-09-26T07:30:39.745Z,100733.22
2023-09-26T07:32:42.896Z,100732.22
2023-09-26T07:34:46.037Z,100735.34
2023-09-26T07:36:48.866Z,100734.34
2023-09-26T07:38:52.231Z,100732.72
2023-09-26T07:40:55.243Z,100738.69
2023-09-26T07:42:57.977Z,100730.69
2023-09-26T07:45:00.746Z,100730.69
2023-09-26T07:47:04.519Z,100725.16
2023-09-26T07:49:07.325Z,100733.69
2023-09-26T07:51:13.943Z,100730.47
2023-09-26T07:53:18.881Z,100731.78
2023-09-26T07:55:21.706Z,100741.25
2023-09-26T07:57:25.068Z,100731.44
2023-09-26T07:59:27.944Z,100726.38
2023-09-26T08:01:32.932Z,100728.47
2023-09-26T08:03:37.044Z,100726.63
2023-09-26T08:05:40.157Z,100727.94
2023-09-26T08:07:44.849Z,100731.81
2023-09-26T08:09:47.796Z,100719.75
2023-09-26T08:11:50.985Z,100728.88
2023-09-26T08:13:54.054Z,100719.16
2023-09-26T08:15:57.233Z,100719.94
2023-09-26T08:18:00.461Z,100721.38
2023-09-26T08:20:03.431Z,100736.84
2023-09-26T08:22:07.146Z,100724.53
2023-09-26T08:24:10.051Z,100719.78
2023-09-26T08:26:13.158Z,100714.84
2023-09-26T08:28:18.165Z,100723.59
2023-09-26T08:30:21.186Z,100718.72
2023-09-26T08:32:24.119Z,100712.00
2023-09-26T08:34:39.054Z,100720.41
2023-09-26T08:36:41.707Z,100724.63
2023-09-26T08:38:45.695Z,100721.03
2023-09-26T08:40:53.048Z,100714.78
2023-09-26T08:42:58.809Z,100719.81
2023-09-26T08:45:02.725Z,100716.34
2023-09-26T08:47:09.166Z,100719.06
2023-09-26T08:49:12.073Z,100710.34
2023-09-26T08:51:15.020Z,100716.84
2023-09-26T08:53:17.972Z,100710.56
2023-09-26T08:55:22.370Z,100714.31
2023-09-26T08:57:25.331Z,100706.53
2023-09-26T08:59:32.900Z,100704.94
2023-09-26T09:01:36.145Z,100708.50
2023-09-26T09:03:38.976Z,100699.25
2023-09-26T09:05:44.299Z,100708.44
2023-09-26T09:07:50.672Z,100711.59
2023-09-26T09:10:09.864Z,100706.13
2023-09-26T09:12:25.575Z,100703.84
2023-09-26T09:14:36.325Z,100697.66
2023-09-26T09:16:39.398Z,100698.47
2023-09-26T09:18:48.787Z,100700.59
2023-09-26T09:20:51.578Z,100701.09
2023-09-26T09:23:01.036Z,100702.97
2023-09-26T09:25:04.418Z,100700.75
2023-09-26T09:27:08.306Z,100697.50
2023-09-26T09:29:19.341Z,100704.66
2023-09-26T09:31:23.602Z,100701.53
2023-09-26T09:33:27.617Z,100698.78
2023-09-26T09:35:31.205Z,100693.81
2023-09-26T09:37:33.880Z,100698.59
2023-09-26T09:39:36.581Z,100702.84
2023-09-26T09:41:40.312Z,100698.44
2023-09-26T09:43:43.201Z,100694.19
2023-09-26T09:45:48.895Z,100699.16
2023-09-26T09:47:53.476Z,100701.38
2023-09-26T09:50:00.943Z,100700.91
2023-09-26T09:52:06.580Z,100694.41
2023-09-26T09:54:14.288Z,100696.09
2023-09-26T09:56:20.825Z,100698.78
2023-09-26T09:58:30.797Z,100700.66
2023-09-26T10:00:37.564Z,100700.75
2023-09-26T10:02:41.188Z,100691.72
2023-09-26T10:04:46.368Z,100691.47
2023-09-26T10:06:49.520Z,100694.25
2023-09-26T10:08:55.159Z,100694.13
2023-09-26T10:11:00.485Z,100688.75
2023-09-26T10:15:17.260Z,100689.22
2023-09-26T10:17:20.817Z,100693.63
2023-09-26T10:19:34.037Z,100694.75
2023-09-26T10:21:42.812Z,100692.38
2023-09-26T10:24:11.353Z,100677.38
2023-09-26T10:26:14.125Z,100689.13
2023-09-26T10:28:18.035Z,100686.47
2023-09-26T10:30:21.180Z,100693.94
2023-09-26T10:32:44.753Z,100693.63
2023-09-26T10:34:54.623Z,100691.06
2023-09-26T10:37:00.012Z,100689.19
2023-09-26T10:39:07.867Z,100682.09
2023-09-26T10:41:10.610Z,100690.09
2023-09-26T10:45:19.425Z,100694.38
2023-09-26T10:47:25.437Z,100686.19
2023-09-26T10:49:33.156Z,100687.69
2023-09-26T10:51:43.117Z,100689.84
2023-09-26T10:53:52.135Z,100693.25
2023-09-26T10:56:04.337Z,100696.69
2023-09-26T11:01:04.751Z,100693.81
2023-09-26T11:03:14.319Z,100696.41
2023-09-26T11:05:21.551Z,100690.84
2023-09-26T11:07:30.308Z,100681.75
2023-09-26T11:09:44.817Z,100688.06
2023-09-26T11:11:49.426Z,100683.84
2023-09-26T11:13:56.093Z,100685.56
2023-09-26T11:16:04.946Z,100679.91
2023-09-26T11:18:14.404Z,100681.22
2023-09-26T11:20:20.881Z,100688.63
2023-09-26T11:22:23.855Z,100684.13
2023-09-26T11:24:32.905Z,100686.00
2023-09-26T11:26:37.028Z,100690.97
2023-09-26T11:28:40.628Z,100680.72
2023-09-26T11:30:43.633Z,100691.97
2023-09-26T11:32:51.883Z,100678.03
2023-09-26T11:34:54.803Z,100674.66
2023-09-26T11:36:59.265Z,100672.00
2023-09-26T11:39:02.565Z,100670.34
2023-09-26T11:41:05.473Z,100669.19
2023-09-26T11:43:08.468Z,100674.00
2023-09-26T11:45:23.537Z,100682.19
2023-09-26T11:47:26.549Z,100677.25
2023-09-26T11:49:30.908Z,100679.38
2023-09-26T11:51:33.982Z,100673.91
2023-09-26T11:53:38.799Z,100665.59
2023-09-26T11:55:44.030Z,100676.81
2023-09-26T11:57:47.555Z,100671.78
2023-09-26T11:59:50.768Z,100672.75
2023-09-26T12:01:55.984Z,100663.50
2023-09-26T12:04:03.161Z,100669.53
2023-09-26T12:06:06.695Z,100664.63
2023-09-26T12:08:09.845Z,100666.91
2023-09-26T12:10:13.880Z,100678.84
2023-09-26T12:12:17.104Z,100670.75
2023-09-26T12:14:20.747Z,100670.22
2023-09-26T12:16:24.749Z,100665.09
2023-09-26T12:18:28.613Z,100670.69
2023-09-26T12:20:31.552Z,100668.41
2023-09-26T12:22:37.937Z,100671.13
2023-09-26T12:24:42.730Z,100665.31
2023-09-26T12:26:49.019Z,100661.81
2023-09-26T12:28:52.907Z,100660.09
2023-09-26T12:30:56.001Z,100665.03
2023-09-26T12:33:01.647Z,100665.94
2023-09-26T12:35:06.811Z,100660.16
2023-09-26T12:37:10.051Z,100658.81
2023-09-26T12:39:13.326Z,100654.41
2023-09-26T12:41:16.573Z,100656.47
2023-09-26T12:43:19.628Z,100657.78
2023-09-26T12:45:22.760Z,100653.66
2023-09-26T12:47:25.822Z,100651.16
2023-09-26T12:49:28.733Z,100647.63
2023-09-26T12:51:32.041Z,100646.97
2023-09-26T12:53:34.813Z,100644.91
2023-09-26T12:55:37.961Z,100644.38
2023-09-26T12:57:41.262Z,100640.44
2023-09-26T12:59:44.469Z,100640.16
2023-09-26T13:01:47.826Z,100646.25
2023-09-26T13:03:51.773Z,100643.59
2023-09-26T13:05:55.288Z,100639.34
2023-09-26T13:07:58.263Z,100640.94
2023-09-26T13:10:02.001Z,100634.91
2023-09-26T13:12:08.243Z,100632.41
2023-09-26T13:14:12.513Z,100635.22
2023-09-26T13:16:15.592Z,100636.75
2023-09-26T13:18:18.516Z,100631.53
2023-09-26T13:20:22.537Z,100642.06
2023-09-26T13:22:26.676Z,100639.13
2023-09-26T13:24:29.588Z,100634.91
2023-09-26T13:26:35.894Z,100638.38
2023-09-26T13:28:38.793Z,100646.34
2023-09-26T13:30:42.732Z,100638.16
2023-09-26T13:32:45.857Z,100634.63
2023-09-26T13:34:48.921Z,100632.47
2023-09-26T13:36:53.663Z,100627.75
2023-09-26T13:38:56.521Z,100632.94
2023-09-26T13:40:59.442Z,100636.03
2023-09-26T13:43:02.428Z,100639.91
2023-09-26T13:45:06.840Z,100640.25
2023-09-26T13:47:10.862Z,100635.41
2023-09-26T13:49:14.064Z,100635.34
2023-09-26T13:51:17.332Z,100629.56
2023-09-26T13:53:20.588Z,100627.75
2023-09-26T13:55:23.390Z,100633.88
2023-09-26T13:57:27.007Z,100627.22
2023-09-26T13:59:29.772Z,100632.16
2023-09-26T14:01:32.930Z,100632.25
2023-09-26T14:03:36.088Z,100626.66
2023-09-26T14:05:39.001Z,100631.38
2023-09-26T14:07:42.730Z,100624.13
2023-09-26T14:09:45.659Z,100633.69
2023-09-26T14:11:48.386Z,100635.03
2023-09-26T14:13:51.298Z,100630.75
2023-09-26T14:15:57.844Z,100635.78
2023-09-26T14:18:01.196Z,100638.22
2023-09-26T14:20:08.636Z,100639.06
2023-09-26T14:22:11.818Z,100638.94
2023-09-26T14:24:14.792Z,100635.13
2023-09-26T14:26:20.404Z,100642.31
2023-09-26T14:28:24.482Z,100640.47
2023-09-26T14:30:29.895Z,100644.97
2023-09-26T14:32:33.195Z,100640.00
2023-09-26T14:34:36.194Z,100641.38
2023-09-26T14:36:39.348Z,100645.22
2023-09-26T14:38:42.934Z,100631.41
2023-09-26T14:40:45.902Z,100638.38
2023-09-26T14:42:48.660Z,100641.72
2023-09-26T14:44:53.244Z,100641.94
2023-09-26T14:46:56.503Z,100645.59
2023-09-26T14:48:59.385Z,100641.78
2023-09-26T14:51:02.191Z,100649.94
2023-09-26T14:53:06.480Z,100639.25
2023-09-26T14:55:09.261Z,100647.50
2023-09-26T14:57:12.012Z,100639.69
2023-09-26T14:59:15.039Z,100639.09
2023-09-26T15:01:20.234Z,100645.19
2023-09-26T15:03:23.573Z,100648.97
2023-09-26T15:05:29.243Z,100646.56
2023-09-26T15:07:32.177Z,100647.25
2023-09-26T15:09:35.145Z,100641.56
2023-09-26T15:11:38.237Z,100643.75
2023-09-26T15:13:41.119Z,100649.94
2023-09-26T15:15:44.249Z,100647.38
2023-09-26T15:17:48.099Z,100648.06
2023-09-26T15:19:51.050Z,100646.31
2023-09-26T15:21:53.901Z,100645.81
2023-09-26T15:23:56.708Z,100649.63
2023-09-26T15:26:01.041Z,100647.84
2023-09-26T15:28:04.313Z,100652.94
2023-09-26T15:30:08.677Z,100643.31
2023-09-26T15:32:11.444Z,100642.34
2023-09-26T15:34:16.000Z,100639.44
2023-09-26T15:36:19.070Z,100644.03
2023-09-26T15:38:23.754Z,100645.03
2023-09-26T15:40:27.081Z,100643.72
2023-09-26T15:42:30.420Z,100636.75
2023-09-26T15:44:43.676Z,100640.06
2023-09-26T15:46:47.927Z,100635.84
2023-09-26T15:48:52.224Z,100646.94
2023-09-26T15:51:09.040Z,100659.22
2023-09-26T15:53:14.781Z,100649.91
2023-09-26T15:55:17.568Z,100650.09
2023-09-26T15:57:20.691Z,100656.47
2023-09-26T15:59:24.810Z,100646.69
2023-09-26T16:01:29.258Z,100647.38
2023-09-26T16:03:34.378Z,100655.22
2023-09-26T16:05:38.802Z,100654.59
2023-09-26T16:07:41.944Z,100649.56
2023-09-26T16:09:46.327Z,100656.41
2023-09-26T16:11:49.487Z,100655.44
2023-09-26T16:13:53.337Z,100650.94
2023-09-26T16:15:59.195Z,100653.53
2023-09-26T16:18:03.673Z,100649.78
2023-09-26T16:20:08.797Z,100652.91
2023-09-26T16:22:13.742Z,100657.97
2023-09-26T16:24:17.302Z,100652.75
2023-09-26T16:26:20.414Z,100656.19
2023-09-26T16:28:23.493Z,100655.19
2023-09-26T16:30:26.598Z,100649.84
2023-09-26T16:32:32.301Z,100657.66
2023-09-26T16:34:36.656Z,100655.06
2023-09-26T16:36:45.484Z,100652.63
2023-09-26T16:38:49.047Z,100657.19
2023-09-26T16:40:52.142Z,100662.25
2023-09-26T16:42:55.373Z,100659.28
2023-09-26T16:44:59.669Z,100655.22
2023-09-26T16:47:04.547Z,100657.00
2023-09-26T16:49:09.188Z,100660.94
2023-09-26T16:51:12.770Z,100660.75
2023-09-26T16:53:16.967Z,100657.19
2023-09-26T16:55:19.996Z,100651.47
2023-09-26T16:57:23.094Z,100653.28
2023-09-26T16:59:26.429Z,100654.28
2023-09-26T17:01:32.317Z,100657.66
2023-09-26T17:03:38.830Z,100656.06
2023-09-26T17:05:43.496Z,100658.16
2023-09-26T17:07:48.184Z,100662.56
2023-09-26T17:09:52.037Z,100655.56
2023-09-26T17:11:55.524Z,100651.16
2023-09-26T17:13:58.837Z,100651.16
2023-09-26T17:16:02.426Z,100648.38
2023-09-26T17:18:06.100Z,100649.06
2023-09-26T17:20:09.839Z,100654.28
2023-09-26T17:22:12.779Z,100650.19
2023-09-26T17:24:16.861Z,100647.75
2023-09-26T17:26:25.745Z,100655.91
2023-09-26T17:28:28.916Z,100642.19
2023-09-26T17:30:33.457Z,100650.38
2023-09-26T17:32:37.402Z,100645.81
2023-09-26T17:34:40.432Z,100651.50
2023-09-26T17:36:44.918Z,100642.72
2023-09-26T17:38:48.781Z,100644.50
2023-09-26T17:40:55.594Z,100642.53
2023-09-26T17:42:59.852Z,100648.88
2023-09-26T17:45:04.818Z,100649.53
2023-09-26T17:47:08.707Z,100641.41
2023-09-26T17:49:11.911Z,100644.00
2023-09-26T17:51:18.289Z,100636.19
2023-09-26T17:53:21.485Z,100639.59
2023-09-26T17:55:24.261Z,100647.59
2023-09-26T17:57:27.116Z,100636.84
2023-09-26T17:59:29.991Z,100638.00
2023-09-26T18:01:32.868Z,100638.78
2023-09-26T18:03:36.443Z,100635.03
2023-09-26T18:05:39.529Z,100636.19
2023-09-26T18:07:42.469Z,100629.69
2023-09-26T18:09:46.161Z,100632.75
2023-09-26T18:11:48.983Z,100628.03
2023-09-26T18:13:52.032Z,100634.06
2023-09-26T18:15:55.818Z,100628.53
2023-09-26T18:17:58.975Z,100626.09
2023-09-26T18:20:02.727Z,100625.59
2023-09-26T18:22:07.752Z,100623.16
2023-09-26T18:24:11.255Z,100624.16
2023-09-26T18:26:14.372Z,100616.16
2023-09-26T18:28:18.937Z,100617.78
2023-09-26T18:30:22.934Z,100614.84
2023-09-26T18:32:26.830Z,100615.31
2023-09-26T18:34:30.015Z,100602.44
2023-09-26T18:36:33.224Z,100605.06
2023-09-26T18:38:36.119Z,100605.53
2023-09-26T18:40:39.006Z,100607.97
2023-09-26T18:42:41.911Z,100611.66
2023-09-26T18:44:44.767Z,100607.75
2023-09-26T18:46:49.112Z,100606.56
2023-09-26T18:48:52.118Z,100602.31
2023-09-26T18:50:55.076Z,100605.25
2023-09-26T18:52:58.139Z,100605.84
2023-09-26T18:55:01.064Z,100604.38
2023-09-26T18:57:05.991Z,100608.09
2023-09-26T18:59:08.682Z,100602.38
2023-09-26T19:01:11.483Z,100600.28
2023-09-26T19:03:14.635Z,100602.03
2023-09-26T19:05:17.740Z,100586.56
2023-09-26T19:07:20.617Z,100596.00
2023-09-26T19:09:23.704Z,100604.28
2023-09-26T19:11:27.832Z,100600.50
2023-09-26T19:13:30.740Z,100600.31
2023-09-26T19:15:33.527Z,100598.19
2023-09-26T19:17:37.141Z,100596.69
2023-09-26T19:19:41.391Z,100599.78
2023-09-26T19:21:44.376Z,100596.81
2023-09-26T19:23:47.293Z,100592.44
2023-09-26T19:25:50.647Z,100589.19
2023-09-26T19:27:53.375Z,100592.59
2023-09-26T19:29:56.252Z,100592.09
2023-09-26T19:32:00.265Z,100589.13
2023-09-26T19:34:03.320Z,100590.25
2023-09-26T19:36:07.024Z,100596.09
2023-09-26T19:38:09.807Z,100592.03
2023-09-26T19:40:12.752Z,100595.59
2023-09-26T19:42:15.569Z,100591.50
2023-09-26T19:44:18.621Z,100589.09
2023-09-26T19:46:21.366Z,100586.13
2023-09-26T19:48:24.236Z,100587.56
2023-09-26T19:50:27.441Z,100586.25
2023-09-26T19:52:30.187Z,100578.63
2023-09-26T19:54:32.958Z,100585.88
2023-09-26T19:56:35.672Z,100577.09
2023-09-26T19:58:38.454Z,100578.53
2023-09-26T20:00:45.126Z,100576.88
2023-09-26T20:02:48.051Z,100584.97
2023-09-26T20:04:50.774Z,100586.09
2023-09-26T20:06:53.493Z,100588.38
2023-09-26T20:08:56.702Z,100580.09
2023-09-26T20:10:59.729Z,100585.91
2023-09-26T20:13:02.522Z,100586.22
2023-09-26T20:15:18.585Z,100588.16
2023-09-26T20:17:26.443Z,100583.28
2023-09-26T20:19:32.685Z,100574.28
2023-09-26T20:21:35.374Z,100583.41
2023-09-26T20:23:38.087Z,100577.38
2023-09-26T20:25:40.961Z,100577.00
2023-09-26T20:27:43.758Z,100574.75
2023-09-26T20:29:46.444Z,100575.69
2023-09-26T20:31:49.262Z,100576.81
2023-09-26T20:33:51.998Z,100573.88
2023-09-26T20:35:58.784Z,100576.13
2023-09-26T20:38:01.700Z,100584.69
2023-09-26T20:40:05.233Z,100575.41
2023-09-26T20:42:10.162Z,100574.88
2023-09-26T20:44:13.047Z,100580.72
2023-09-26T20:46:15.933Z,100576.66
2023-09-26T20:48:18.628Z,100576.16
2023-09-26T20:50:21.455Z,100583.09
2023-09-26T20:52:24.171Z,100576.28
2023-09-26T20:54:28.302Z,100593.63
2023-09-26T20:56:31.049Z,100579.31
2023-09-26T20:58:35.089Z,100582.72
2023-09-26T21:00:37.860Z,100581.06
2023-09-26T21:02:40.896Z,100571.59
2023-09-26T21:04:43.784Z,100579.56
2023-09-26T21:06:50.616Z,100591.19
2023-09-26T21:08:53.641Z,100579.16
2023-09-26T21:11:01.040Z,100581.41
2023-09-26T21:13:04.164Z,100575.69
2023-09-26T21:15:07.645Z,100575.50
2023-09-26T21:17:11.239Z,100589.59
2023-09-26T21:19:14.110Z,100579.47
2023-09-26T21:21:21.558Z,100584.19
2023-09-26T21:23:24.267Z,100582.84
2023-09-26T21:25:26.964Z,100581.84
2023-09-26T21:27:29.756Z,100582.13
2023-09-26T21:29:32.477Z,100587.97
2023-09-26T21:31:35.279Z,100581.94
2023-09-26T21:33:39.161Z,100591.31
2023-09-26T21:35:41.822Z,100582.06
2023-09-26T21:37:44.719Z,100590.31
2023-09-26T21:39:47.509Z,100586.25
2023-09-26T21:41:50.202Z,100587.66
2023-09-26T21:43:52.902Z,100591.53
2023-09-26T21:45:55.836Z,100586.63
2023-09-26T21:47:59.045Z,100594.38
2023-09-26T21:50:04.458Z,100590.81
2023-09-26T21:52:07.945Z,100588.66
2023-09-26T21:54:10.669Z,100592.53
2023-09-26T21:56:13.419Z,100592.84
2023-09-26T21:58:16.227Z,100596.44
2023-09-26T22:00:23.166Z,100596.72
2023-09-26T22:02:26.028Z,100588.75
2023-09-26T22:04:29.341Z,100593.47
2023-09-26T22:06:37.718Z,100592.13
2023-09-26T22:08:43.936Z,100592.44
2023-09-26T22:10:46.943Z,100593.03
2023-09-26T22:12:50.013Z,100592.50
2023-09-26T22:14:53.946Z,100588.41
2023-09-26T22:16:56.671Z,100593.13
2023-09-26T22:18:59.994Z,100591.28
2023-09-26T22:21:02.892Z,100591.56
2023-09-26T22:23:06.785Z,100586.69
2023-09-26T22:25:10.545Z,100586.16
2023-09-26T22:27:13.240Z,100584.03
2023-09-26T22:29:15.949Z,100586.25
2023-09-26T22:31:18.704Z,100584.59
2023-09-26T22:33:23.536Z,100596.75
2023-09-26T22:35:26.511Z,100589.59
2023-09-26T22:37:29.278Z,100587.47
2023-09-26T22:39:32.000Z,100581.44
2023-09-26T22:41:34.714Z,100583.88
2023-09-26T22:43:37.483Z,100586.03
2023-09-26T22:45:40.264Z,100589.59
2023-09-26T22:47:43.046Z,100584.59
2023-09-26T22:49:45.847Z,100584.59
2023-09-26T22:51:49.224Z,100586.25
2023-09-26T22:53:54.870Z,100578.81
2023-09-26T22:55:57.739Z,100583.19
2023-09-26T22:58:00.525Z,100573.91
2023-09-26T23:00:03.957Z,100573.59
2023-09-26T23:02:08.490Z,100583.78
2023-09-26T23:04:11.291Z,100577.47
2023-09-26T23:06:14.150Z,100584.41
2023-09-26T23:08:16.856Z,100580.84
2023-09-26T23:10:19.780Z,100583.59
2023-09-26T23:12:22.489Z,100580.34
2023-09-26T23:14:25.353Z,100570.75
2023-09-26T23:16:28.119Z,100576.53
2023-09-26T23:18:30.784Z,100577.69
2023-09-26T23:20:41.391Z,100565.91
2023-09-26T23:22:44.272Z,100578.78
2023-09-26T23:24:47.006Z,100578.78
2023-09-26T23:26:49.766Z,100582.66
2023-09-26T23:28:52.644Z,100574.69
2023-09-26T23:30:55.810Z,100579.06
2023-09-26T23:32:59.898Z,100579.69
2023-09-26T23:35:02.785Z,100573.97
2023-09-26T23:37:06.510Z,100571.00
2023-09-26T23:39:09.423Z,100582.28
2023-09-26T23:41:12.596Z,100576.59
2023-09-26T23:43:17.236Z,100574.44